Lodi, WI

6:36 PM CDT en Octubre 31, 2014 (GMT -0500)
Toneman3 | Change Station
CLOSE
Current Station
Estación meteorológica personal
Location: Lodi, WI
Altura: 879 ft
Estaciones meteorológicas cercanas

Alt 879 ft 43.32 °N, 89.54 °W | Updated 46 seconds ago

Muy nublado
Muy nublado
34.7 ° F
Sensación térmica 35 ° F
N
2.0
Viento Variable Viento desde NO
Gusts 3.0 mph

Hoy
Alta -- | Baja -- ° F
--% Posibilidad de precipitaciones
Ayer
Alta -- | Baja -- ° F
Precip. -- pul
7:32 AM 5:50 PM
Cuarto creciente, 60% visible
Presión 30.40 pul
Visibilidad 10.0 Millas
Nubes Despejado
Vientos helados 35 ° F
Punto de rocío 20 ° F
Humedad 55%
Precipitaciones 0.00 pul
Espesor de la nieve No disponible.
UV 0 de una escala de 12
Polen .10 de una escala de 12
Calidad del aire No disponible.
Flu Activity No disponible.
METAR KC29 312315Z AUTO 36007KT 10SM CLR 02/M08 A3040 RMK AO1 T00151084

More Conditions Fewer Conditions

Presión 30.40 pul
Visibilidad 10.0 Millas
Nubes Despejado
Vientos helados 35 ° F
Punto de rocío 20 ° F
Humedad 55%
Precipitaciones 0.00 pul
Espesor de la nieve No disponible.
UV 0 de una escala de 12
Polen .10 de una escala de 12
Calidad del aire No disponible.
Flu Activity No disponible.
METAR KC29 312315Z AUTO 36007KT 10SM CLR 02/M08 A3040 RMK AO1 T00151084

More Conditions Fewer Conditions

10-Day Weather Forecast

Almanac

Astronomía

Oct. 31, 2014 Salida Puesta
Hora real
Crepúsculo civil
Crepúsculo náutico
Crepúsculo astronómico
Luna
Horas de luz
Horas de luz
Tomorrow will be .
, % of the Moon is Illuminated

Extremos de hoy

Máximos del estado Bajos del estado

Community

WunderPhotos

Upload Photos

1,766,784 ¡fotos cargadas!

WunderBlogs® & News

Nearby

Calidad del aire

  Calidad del aire Índice AQ Contaminante
Not available.

Grosos de nieve

Estación Profundido Altura

Actividad de terremotos

Ciudad Distance Mag. Tiempo y dato
Magnitud mínima muestra es 2,5.

Temperaturas de aguas costeras

Lugar Temperatura

Estaciones meteorológicas cercanas